Latest Weather Observations for Flinders Island Airport

IDT60801

Issued at 3:35 pm EDT Saturday 1 November 2014 (issued every 30 minutes, with the page automatically refreshed every 10 minutes)

About weather observations | Map of weather stations | Latest weather observations for TAS | Other Formats
Station Details ID: 099005 Name: FLINDERS ISLAND AIRPORT Lat: -40.09 Lon: 148.00 Height: 9.0 m
Data from the previous 72 hours. | See also: Recent months at Flinders Island Airport
Date/Time
EDT
Temp
°C
App
Temp
°C
Dew
Point
Rel
Hum
%
Delta-T
°C
Wind Press
QNH
hPa
Press
MSL
hPa
Rain
since 9 am
mm
Dir
 
Spd
km/h
Gust
km/h
Spd
kts
Gust
kts
01/03:30pm 14.4 2.8 6.7 60 3.8 W 57 76 31 41 999.6 999.6 0.8
01/03:11pm 15.2 4.0 7.5 60 3.8 W 56 74 30 40 999.5 999.5 0.8
01/03:00pm 14.8 4.1 6.6 58 4.0 W 52 63 28 34 999.5 999.5 0.8
01/02:48pm 15.0 3.9 7.8 62 3.6 W 56 74 30 40 999.4 999.4 0.8
01/02:30pm 14.4 3.0 7.5 63 3.4 W 57 72 31 39 999.4 999.4 0.8
01/02:00pm 15.8 4.8 7.0 56 4.4 W 54 72 29 39 999.3 999.3 0.8
01/01:52pm 15.9 5.2 8.2 60 3.9 W 54 72 29 39 999.3 999.3 0.8
01/01:30pm 15.4 5.8 7.9 61 3.8 W 48 61 26 33 999.1 999.1 0.8
01/01:06pm 14.3 3.1 7.6 64 3.3 W 56 74 30 40 999.0 999.0 0.8
01/01:00pm 15.0 4.8 7.1 59 3.9 W 50 65 27 35 999.0 999.0 0.8
01/12:43pm 15.8 5.7 7.3 57 4.2 W 50 74 27 40 999.0 999.0 0.8
01/12:30pm 15.4 4.7 8.2 62 3.6 W 54 61 29 33 999.0 999.0 0.8
01/12:00pm 15.1 6.1 9.0 67 3.1 W 46 57 25 31 998.7 998.7 0.8
01/11:30am 14.8 5.1 9.0 68 3.0 W 50 59 27 32 998.5 998.5 0.8
01/11:12am 14.2 5.5 8.4 68 2.9 W 44 63 24 34 998.5 998.5 0.8
01/11:00am 14.3 4.7 9.3 72 2.6 W 50 61 27 33 998.7 998.7 0.8
01/10:30am 13.7 6.2 10.7 82 1.6 W 41 54 22 29 998.6 998.6 0.8
01/10:16am 13.6 6.2 11.1 85 1.3 W 41 54 22 29 998.5 998.5 0.8
01/10:00am 13.3 6.3 11.4 88 1.0 W 39 50 21 27 998.0 998.0 0.8
01/09:59am 13.3 6.3 11.4 88 1.0 W 39 50 21 27 998.0 998.0 0.8
01/09:30am 12.4 6.3 10.6 89 0.9 W 33 43 18 23 997.9 997.9 0.8
01/09:24am 12.3 5.8 10.5 89 0.9 W 35 48 19 26 997.8 997.8 0.8
01/09:22am 12.3 5.8 10.5 89 0.9 W 35 48 19 26 997.6 997.6 0.8
01/09:04am 12.3 5.1 10.5 89 0.9 W 39 63 21 34 997.4 997.4 0.4
01/09:03am 13.6 6.8 12.0 90 0.9 W 39 63 21 34 997.4 997.4 0.4
01/09:00am 13.5 7.0 11.7 89 1.0 WNW 37 46 20 25 997.4 997.4 0.4
01/08:30am 14.3 8.2 11.8 85 1.3 W 35 50 19 27 997.3 997.3 0.0
01/08:04am 14.4 8.1 11.2 81 1.7 W 35 48 19 26 996.9 996.9 0.0
01/08:00am 14.6 8.0 11.4 81 1.7 W 37 50 20 27 996.9 996.9 0.0
01/07:59am 14.6 8.0 11.4 81 1.7 W 37 50 20 27 997.0 997.0 0.0
01/07:43am 14.9 8.7 11.3 79 1.9 W 35 48 19 26 996.8 996.8 0.0
01/07:30am 14.9 8.4 11.7 81 1.7 W 37 48 20 26 996.6 996.6 0.0
01/07:00am 14.9 9.9 12.2 84 1.5 W 30 39 16 21 995.8 995.8 0.0
01/06:30am 14.9 11.1 12.4 85 1.4 W 24 33 13 18 995.3 995.3 0.0
01/06:00am 15.0 10.0 12.3 84 1.5 W 30 37 16 20 995.0 995.0 0.0
01/05:30am 15.3 11.0 12.2 82 1.7 W 26 32 14 17 994.5 994.5 0.0
01/05:00am 15.6 10.1 12.0 79 2.0 W 32 41 17 22 995.3 995.3 0.0
01/04:30am 16.0 9.5 11.8 76 2.3 W 37 48 20 26 995.0 995.0 0.0
01/04:00am 16.7 11.1 11.6 72 2.8 W 32 39 17 21 994.6 994.6 0.0
01/03:30am 17.7 12.7 11.0 65 3.6 NW 28 35 15 19 993.5 993.5 0.0
01/03:00am 19.0 12.1 11.6 62 4.1 NW 39 54 21 29 993.1 993.1 0.0
01/02:31am 21.4 15.7 11.1 52 5.7 NNW 32 50 17 27 992.7 992.7 0.0
01/02:30am 21.4 15.5 11.1 52 5.7 NNW 33 50 18 27 992.7 992.7 0.0
01/02:12am 20.4 15.6 12.9 62 4.3 NNW 30 50 16 27 993.0 993.0 0.0
01/02:10am 20.0 12.3 13.2 65 3.9 WNW 46 65 25 35 993.7 993.7 0.0
01/02:00am 19.8 12.5 13.5 67 3.6 NNE 44 59 24 32 992.1 992.1 0.0
01/01:30am 19.2 12.3 14.0 72 3.0 NNE 43 54 23 29 992.4 992.4 0.0
01/01:00am 19.1 12.0 13.5 70 3.2 NNE 43 59 23 32 993.3 993.3 0.0
01/12:30am 19.5 11.5 11.0 58 4.6 NNE 44 54 24 29 994.3 994.3 0.0
01/12:00am 19.3 10.9 9.5 53 5.2 NNE 44 61 24 33 995.1 995.1 0.0
 
Date/Time
EDT
Temp
°C
App
Temp
°C
Dew
Point
Rel
Hum
%
Delta-T
°C
Wind Press
QNH
hPa
Press
MSL
hPa
Rain
since 9 am
mm
Dir
 
Spd
km/h
Gust
km/h
Spd
kts
Gust
kts
31/11:30pm 19.4 12.1 8.7 50 5.6 NNE 37 48 20 26 996.0 996.0 0.0
31/11:00pm 19.5 12.1 8.5 49 5.8 NNE 37 56 20 30 996.7 996.7 0.0
31/10:30pm 19.2 11.1 8.8 51 5.4 NNE 41 52 22 28 997.5 997.5 0.0
31/10:00pm 19.1 11.1 9.0 52 5.3 NNE 41 54 22 29 998.3 998.3 0.0
31/09:30pm 18.5 11.2 10.1 58 4.5 NNE 39 50 21 27 999.0 999.0 0.0
31/09:00pm 18.1 10.9 10.7 62 4.0 NNE 39 52 21 28 999.4 999.4 0.0
31/08:30pm 18.1 11.6 10.5 61 4.1 NNE 35 44 19 24 999.8 999.8 0.0
31/08:00pm 17.6 11.8 10.9 65 3.6 NNE 32 41 17 22 1000.4 1000.4 0.0
31/07:30pm 17.2 12.5 11.9 71 2.9 NE 28 37 15 20 1001.0 1001.0 0.0
31/07:00pm 17.3 13.9 12.6 74 2.6 ENE 22 30 12 16 1001.3 1001.3 0.0
31/06:30pm 17.8 14.9 12.9 73 2.7 NE 20 30 11 16 1001.5 1001.5 0.0
31/06:00pm 18.8 15.9 13.0 69 3.3 NNE 20 28 11 15 1001.6 1001.6 0.0
31/05:30pm 19.7 16.1 12.9 65 3.8 NE 24 32 13 17 1001.8 1001.8 0.0
31/05:00pm 19.7 16.1 12.9 65 3.9 NNE 24 30 13 16 1002.3 1002.3 0.0
31/04:30pm 20.2 16.0 13.4 65 3.9 ENE 28 32 15 17 1002.6 1002.6 0.0
31/04:00pm 20.2 17.4 12.7 62 4.3 NNE 19 24 10 13 1003.1 1003.1 0.0
31/03:30pm 19.7 16.0 12.7 64 3.9 NNE 24 32 13 17 1003.7 1003.7 0.0
31/03:00pm 19.7 15.1 12.2 62 4.2 N 28 35 15 19 1004.3 1004.3 0.0
31/02:30pm 20.1 15.9 12.3 61 4.4 N 26 35 14 19 1004.8 1004.8 0.0
31/02:00pm 20.0 16.1 12.0 60 4.5 N 24 33 13 18 1005.4 1005.4 0.0
31/01:30pm 19.6 15.5 11.6 60 4.4 N 24 32 13 17 1006.0 1006.0 0.0
31/01:00pm 18.8 14.3 11.4 62 4.1 N 26 37 14 20 1006.2 1006.2 0.0
31/12:30pm 18.6 15.0 11.7 64 3.8 NW 22 30 12 16 1007.2 1007.2 0.0
31/12:00pm 17.8 12.6 10.4 62 4.0 NW 28 35 15 19 1008.0 1008.0 0.0
31/11:30am 17.5 13.3 9.9 61 4.0 WNW 22 32 12 17 1008.5 1008.5 0.0
31/11:00am 17.3 13.3 10.4 64 3.7 NW 22 30 12 16 1008.2 1008.2 0.0
31/10:30am 17.4 13.8 10.5 64 3.7 NW 20 32 11 17 1008.9 1008.9 0.0
31/10:00am 16.5 12.8 10.1 66 3.4 WNW 20 28 11 15 1009.3 1009.3 0.0
31/09:30am 16.2 12.1 10.1 67 3.2 WNW 22 30 12 16 1009.6 1009.6 0.0
31/09:00am 15.6 11.6 10.6 72 2.6 NW 22 32 12 17 1010.0 1010.0 0.2
31/08:30am 14.4 9.9 10.0 75 2.3 NW 24 32 13 17 1010.3 1010.3 0.2
31/08:00am 14.3 10.5 9.7 74 2.4 WNW 20 30 11 16 1010.4 1010.4 0.2
31/07:30am 14.0 10.3 10.0 77 2.1 WNW 20 30 11 16 1010.1 1010.1 0.2
31/07:00am 13.4 9.7 9.6 78 1.9 WNW 19 30 10 16 1010.3 1010.3 0.2
31/06:30am 13.3 10.4 9.5 78 1.9 WNW 15 26 8 14 1010.3 1010.3 0.2
31/06:00am 13.1 9.4 9.4 78 1.9 WNW 19 26 10 14 1010.2 1010.2 0.2
31/05:30am 13.1 9.8 9.5 79 1.8 WNW 17 20 9 11 1010.0 1010.0 0.2
31/05:00am 13.1 9.5 9.7 80 1.7 WNW 19 26 10 14 1010.0 1010.0 0.2
31/04:30am 12.9 9.2 10.1 83 1.4 WNW 20 28 11 15 1010.2 1010.2 0.2
31/04:06am 12.8 9.1 10.3 85 1.3 W 20 28 11 15 1010.3 1010.3 0.2
31/04:00am 12.6 9.1 10.1 85 1.3 WNW 19 24 10 13 1010.4 1010.4 0.2
31/03:30am 12.5 8.8 10.0 85 1.3 W 20 26 11 14 1010.6 1010.6 0.2
31/03:21am 12.6 8.1 10.0 84 1.3 W 24 28 13 15 1010.8 1010.8 0.2
31/03:14am 12.7 8.6 10.1 84 1.3 W 22 28 12 15 1010.9 1010.9 0.2
31/03:00am 12.7 8.6 10.1 84 1.3 W 22 30 12 16 1011.0 1011.0 0.2
31/02:30am 12.7 8.6 10.2 85 1.3 W 22 28 12 15 1011.1 1011.1 0.2
31/02:05am 12.7 8.6 10.2 85 1.3 W 22 30 12 16 1011.4 1011.4 0.2
31/02:00am 12.6 8.5 10.1 85 1.3 W 22 30 12 16 1011.5 1011.5 0.2
31/01:30am 12.6 8.9 10.1 85 1.3 W 20 28 11 15 1011.6 1011.6 0.2
31/01:00am 12.6 8.9 10.1 85 1.3 W 20 28 11 15 1011.9 1011.9 0.2
31/12:30am 12.8 7.5 10.0 83 1.4 W 28 32 15 17 1011.7 1011.7 0.2
31/12:00am 12.8 8.7 10.0 83 1.4 W 22 30 12 16 1012.0 1012.0 0.2
 
Date/Time
EDT
Temp
°C
App
Temp
°C
Dew
Point
Rel
Hum
%
Delta-T
°C
Wind Press
QNH
hPa
Press
MSL
hPa
Rain
since 9 am
mm
Dir
 
Spd
km/h
Gust
km/h
Spd
kts
Gust
kts
30/11:30pm 13.0 7.7 10.0 82 1.5 W 28 35 15 19 1012.2 1012.2 0.2
30/11:00pm 13.1 8.2 10.1 82 1.5 W 26 35 14 19 1012.2 1012.2 0.2
30/10:30pm 13.2 8.4 10.2 82 1.6 W 26 33 14 18 1012.2 1012.2 0.2
30/10:00pm 13.3 7.7 10.3 82 1.6 W 30 37 16 20 1012.3 1012.3 0.2
30/09:30pm 13.5 7.9 10.1 80 1.8 W 30 37 16 20 1012.1 1012.1 0.2
30/09:00pm 13.6 7.6 10.2 80 1.8 W 32 41 17 22 1012.0 1012.0 0.2
30/08:30pm 13.6 8.0 10.2 80 1.8 W 30 39 16 21 1011.8 1011.8 0.2
30/08:00pm 13.6 7.4 10.2 80 1.8 W 33 48 18 26 1011.8 1011.8 0.2
30/07:30pm 13.6 7.3 9.8 78 2.0 W 33 41 18 22 1011.4 1011.4 0.2
30/07:00pm 14.1 8.0 9.7 75 2.3 W 32 41 17 22 1011.4 1011.4 0.2
30/06:30pm 14.5 7.5 9.9 74 2.4 W 37 46 20 25 1011.3 1011.3 0.2
30/06:00pm 14.8 7.9 10.2 74 2.4 W 37 52 20 28 1011.2 1011.2 0.2
30/05:30pm 15.3 9.2 10.3 72 2.6 W 33 43 18 23 1011.2 1011.2 0.2
30/05:00pm 15.2 8.7 10.4 73 2.5 W 35 44 19 24 1011.1 1011.1 0.2
30/04:39pm 15.3 8.7 10.1 71 2.7 W 35 44 19 24 1011.0 1011.0 0.2
30/04:30pm 15.7 8.7 10.0 69 3.0 W 37 52 20 28 1010.9 1010.9 0.2
30/04:25pm 15.9 8.5 10.0 68 3.1 W 39 52 21 28 1010.9 1010.9 0.2
30/04:12pm 15.9 9.0 10.2 69 3.0 W 37 48 20 26 1010.8 1010.8 0.2
30/04:00pm 15.9 9.0 10.2 69 3.0 W 37 48 20 26 1011.0 1011.0 0.2
30/03:30pm 15.5 8.0 9.6 68 3.1 W 39 52 21 28 1011.1 1011.1 0.2
30/03:00pm 16.7 9.1 10.5 67 3.3 W 41 52 22 28 1011.1 1011.1 0.2
30/02:30pm 15.9 9.3 10.0 68 3.1 W 35 44 19 24 1011.1 1011.1 0.2
30/02:00pm 15.8 8.7 9.5 66 3.3 W 37 48 20 26 1011.6 1011.6 0.2
30/01:30pm 14.9 7.5 9.9 72 2.6 W 39 54 21 29 1011.6 1011.6 0.2
30/01:29pm 14.6 6.8 9.6 72 2.6 W 41 54 22 29 1011.6 1011.6 0.2
30/01:00pm 15.8 9.9 11.0 73 2.6 W 33 41 18 22 1011.5 1011.5 0.2
30/12:51pm 15.8 10.2 11.4 75 2.4 W 32 39 17 21 1011.6 1011.6 0.2
30/12:39pm 14.4 8.5 10.4 77 2.1 W 32 43 17 23 1011.6 1011.6 0.0
30/12:36pm 14.3 8.1 9.9 75 2.3 W 33 43 18 23 1011.6 1011.6 0.0
30/12:30pm 14.5 8.4 10.3 76 2.2 W 33 44 18 24 1011.5 1011.5 0.0
30/12:24pm 13.8 7.6 10.0 78 2.0 W 33 43 18 23 1011.6 1011.6 0.0
30/12:00pm 16.1 10.1 10.8 71 2.8 W 33 43 18 23 1011.8 1011.8 0.0
30/11:30am 15.8 9.9 11.2 74 2.5 W 33 41 18 22 1012.0 1012.0 0.0
30/11:07am 14.2 8.5 11.2 82 1.6 W 32 41 17 22 1012.4 1012.4 0.0
30/11:00am 14.0 8.1 11.3 84 1.4 W 33 44 18 24 1012.4 1012.4 0.0
30/10:53am 13.5 7.2 11.0 85 1.3 W 35 46 19 25 1012.5 1012.5 0.0
30/10:47am 13.7 7.9 11.4 86 1.2 W 33 46 18 25 1012.5 1012.5 0.0
30/10:31am 13.0 6.9 10.4 84 1.3 W 33 50 18 27 1012.5 1012.5 0.0
30/10:30am 12.8 6.6 10.0 83 1.4 W 33 50 18 27 1012.5 1012.5 0.0
30/10:26am 13.7 7.8 10.5 81 1.7 W 32 50 17 27 1012.4 1012.4 0.0
30/10:00am 13.6 8.4 11.5 87 1.1 W 30 39 16 21 1012.5 1012.5 0.0
30/09:54am 13.4 7.5 11.3 87 1.1 W 33 41 18 22 1012.4 1012.4 0.0
30/09:34am 13.5 7.3 10.1 80 1.8 W 33 44 18 24 1012.4 1012.4 0.0
30/09:30am 14.3 8.4 10.5 78 2.0 W 32 44 17 24 1012.3 1012.3 0.0
30/09:28am 14.2 8.3 10.4 78 2.0 W 32 39 17 21 1012.3 1012.3 0.0
30/09:00am 14.0 9.4 11.0 82 1.6 W 26 33 14 18 1012.4 1012.4 0.4
30/08:52am 13.7 9.9 11.0 84 1.4 W 22 33 12 18 1012.3 1012.3 0.4
30/08:30am 12.8 6.8 10.0 83 1.4 W 32 39 17 21 1012.5 1012.5 0.4
30/08:05am 13.1 6.7 9.5 79 1.8 W 33 41 18 22 1012.3 1012.3 0.2
30/08:00am 13.1 6.0 9.5 79 1.8 W 37 43 20 23 1012.2 1012.2 0.2
30/07:30am 13.0 7.1 10.4 84 1.3 W 32 39 17 21 1011.8 1011.8 0.2
30/07:00am 12.5 7.4 10.6 88 1.0 W 28 37 15 20 1011.6 1011.6 0.2
30/06:30am 11.9 6.0 10.5 91 0.7 W 32 39 17 21 1011.4 1011.4 0.2
30/06:20am 12.0 5.9 10.6 91 0.7 W 33 39 18 21 1011.5 1011.5 0.2
30/06:00am 12.1 5.7 10.7 91 0.7 W 35 48 19 26 1011.6 1011.6 0.2
30/05:56am 12.2 5.4 10.6 90 0.8 W 37 46 20 25 1011.4 1011.4 0.2
30/05:47am 12.3 5.1 10.5 89 0.9 W 39 46 21 25 1011.3 1011.3 0.2
30/05:30am 12.5 6.7 10.9 90 0.8 W 32 39 17 21 1011.2 1011.2 0.0
30/05:14am 12.3 6.8 10.7 90 0.8 W 30 35 16 19 1011.5 1011.5 0.0
30/05:13am 12.3 6.8 10.7 90 0.8 W 30 39 16 21 1011.5 1011.5 0.0
30/05:00am 12.5 6.5 10.9 90 0.8 W 33 41 18 22 1011.3 1011.3 0.0
30/04:52am 12.4 5.6 10.6 89 0.9 W 37 50 20 27 1011.3 1011.3 0.0
30/04:51am 12.4 5.6 10.6 89 0.9 W 37 50 20 27 1011.3 1011.3 0.0
30/04:44am 12.1 6.2 10.3 89 0.9 W 32 50 17 27 1011.3 1011.3 0.0
30/04:30am 12.0 3.9 10.1 88 1.0 W 43 56 23 30 1011.3 1011.3 0.0
30/04:24am 12.3 5.8 10.2 87 1.1 W 35 56 19 30 1011.3 1011.3 0.0
30/04:23am 12.7 6.6 10.4 86 1.2 W 33 52 18 28 1011.4 1011.4 0.0
30/04:00am 13.5 7.4 10.5 82 1.6 W 33 43 18 23 1011.3 1011.3 0.0
30/03:30am 13.3 6.8 10.5 83 1.5 WNW 35 48 19 26 1011.1 1011.1 0.0
30/03:00am 13.5 7.8 11.0 85 1.3 WNW 32 43 17 23 1011.3 1011.3 0.0
30/02:30am 13.4 7.4 10.9 85 1.3 W 33 41 18 22 1011.4 1011.4 0.0
30/02:00am 13.2 7.2 10.7 85 1.3 W 33 43 18 23 1011.6 1011.6 0.0
30/01:53am 13.2 7.2 10.7 85 1.3 W 33 43 18 23 1011.7 1011.7 0.0
30/01:30am 13.4 7.4 10.8 84 1.4 W 33 44 18 24 1011.8 1011.8 0.0
30/01:04am 13.5 7.6 11.0 85 1.3 W 33 44 18 24 1012.1 1012.1 0.0
30/01:00am 13.4 7.6 10.9 85 1.3 W 32 43 17 23 1012.1 1012.1 0.0
30/12:30am 13.2 7.2 10.7 85 1.3 W 33 44 18 24 1012.3 1012.3 0.0
30/12:00am 12.9 7.1 10.8 87 1.1 W 32 41 17 22 1012.4 1012.4 0.0
 
Date/Time
EDT
Temp
°C
App
Temp
°C
Dew
Point
Rel
Hum
%
Delta-T
°C
Wind Press
QNH
hPa
Press
MSL
hPa
Rain
since 9 am
mm
Dir
 
Spd
km/h
Gust
km/h
Spd
kts
Gust
kts
29/11:30pm 13.1 7.3 10.8 86 1.2 W 32 41 17 22 1012.7 1012.7 0.0
29/11:00pm 13.1 7.3 10.8 86 1.2 W 32 44 17 24 1012.9 1012.9 0.0
29/10:30pm 13.1 6.3 10.6 85 1.3 W 37 50 20 27 1013.0 1013.0 0.0
29/10:00pm 13.1 6.7 10.8 86 1.2 W 35 46 19 25 1013.2 1013.2 0.0
29/09:30pm 13.1 6.7 10.8 86 1.2 W 35 44 19 24 1013.3 1013.3 0.0
29/09:00pm 13.1 6.3 10.8 86 1.2 W 37 50 20 27 1013.2 1013.2 0.0
29/08:30pm 13.0 6.2 10.7 86 1.2 W 37 50 20 27 1013.1 1013.1 0.0
29/08:00pm 13.7 6.4 10.3 80 1.8 W 39 56 21 30 1012.9 1012.9 0.0
29/07:30pm 13.8 6.0 9.8 77 2.1 W 41 54 22 29 1012.8 1012.8 0.0
29/07:00pm 13.8 6.3 9.5 75 2.2 W 39 50 21 27 1012.6 1012.6 0.0
29/06:30pm 14.3 6.0 9.5 73 2.5 W 43 56 23 30 1012.5 1012.5 0.0
29/06:00pm 14.4 6.9 9.6 73 2.5 W 39 50 21 27 1012.6 1012.6 0.0
29/05:30pm 14.6 6.2 9.0 69 2.9 W 43 54 23 29 1012.8 1012.8 0.0
29/05:00pm 14.6 6.7 9.4 71 2.7 W 41 52 22 28 1012.8 1012.8 0.0
29/04:30pm 15.1 7.2 9.2 68 3.0 W 41 52 22 28 1012.8 1012.8 0.0
29/04:00pm 15.6 8.1 9.3 66 3.2 W 39 54 21 29 1013.1 1013.1 0.0

Other Formats:

Comma delimited format used in spreadsheet applications
http://www.bom.gov.au/fwo/IDT60801/IDT60801.94980.axf

JavaScript Object Notation format (JSON) in row-major order
http://www.bom.gov.au/fwo/IDT60801/IDT60801.94980.json